Time;durP1;ratioP1;P1;durP2;ratioP2;P2;SDS_P1;SDS_P2;PMS_P1;PMS_P2;Temp;Humidity;BMP_temperature;BMP_pressure;BME280_temperature;BME280_humidity;BME280_pressure;Samples;Min_cycle;Max_cycle;Signal;HPM_P1;HPM_P2
2023/06/29 00:00:21;;;;;;;3.33;2.53;;;15.90;31.30;;;;;;5042988;28;20032;-75
2023/06/29 00:02:52;;;;;;;6.18;3.97;;;15.80;47.50;;;;;;5046942;28;20033;-76
2023/06/29 00:05:21;;;;;;;6.65;3.35;;;15.60;64.00;;;;;;5046368;28;20037;-76
2023/06/29 00:07:48;;;;;;;3.83;3.42;;;15.50;86.10;;;;;;5035061;28;20045;-77
2023/06/29 00:10:14;;;;;;;4.28;3.17;;;15.40;94.40;;;;;;5047087;28;20379;-77
2023/06/29 00:12:40;;;;;;;4.00;2.90;;;15.40;96.60;;;;;;5045867;28;20037;-77
2023/06/29 00:15:07;;;;;;;4.80;3.28;;;15.50;93.00;;;;;;5044245;28;20033;-78
2023/06/29 00:17:34;;;;;;;5.70;3.40;;;15.50;94.80;;;;;;5048317;28;20040;-80
2023/06/29 00:20:00;;;;;;;4.53;3.33;;;15.70;90.00;;;;;;5043501;28;20035;-77
2023/06/29 00:22:26;;;;;;;5.72;3.17;;;15.60;79.20;;;;;;5045350;28;20041;-76
2023/06/29 00:24:56;;;;;;;6.20;2.90;;;15.60;79.10;;;;;;5044498;28;20036;-75
2023/06/29 00:27:23;;;;;;;8.25;3.42;;;15.60;86.00;;;;;;5044267;28;20052;-75
2023/06/29 00:29:50;;;;;;;3.78;2.78;;;15.30;93.20;;;;;;5043990;28;20056;-75
2023/06/29 00:32:16;;;;;;;3.90;3.45;;;15.20;99.90;;;;;;5027512;28;20033;-77
2023/06/29 00:34:44;;;;;;;6.50;3.05;;;15.10;99.90;;;;;;5045693;28;20044;-77
2023/06/29 00:37:11;;;;;;;4.30;3.20;;;15.00;99.90;;;;;;5038921;28;20484;-76
2023/06/29 00:39:38;;;;;;;4.45;3.25;;;15.00;99.90;;;;;;5040453;28;20053;-75
2023/06/29 00:42:05;;;;;;;7.18;3.58;;;15.00;99.90;;;;;;5037738;28;20033;-75
2023/06/29 00:44:31;;;;;;;4.03;2.90;;;15.10;99.90;;;;;;5049257;28;20045;-80
2023/06/29 00:46:57;;;;;;;5.93;3.45;;;15.10;99.90;;;;;;5048393;28;20029;-77
2023/06/29 00:49:24;;;;;;;4.25;3.25;;;15.20;99.90;;;;;;5061640;28;20052;-76
2023/06/29 00:51:52;;;;;;;4.85;3.97;;;15.10;99.90;;;;;;5049807;28;20384;-76
2023/06/29 00:54:19;;;;;;;4.18;3.05;;;15.10;99.90;;;;;;5050738;28;20404;-75
2023/06/29 00:56:48;;;;;;;6.57;3.30;;;15.10;99.90;;;;;;5049491;28;20033;-77
2023/06/29 00:59:15;;;;;;;4.43;3.65;;;15.00;99.90;;;;;;5013632;28;20483;-77
2023/06/29 01:01:43;;;;;;;4.53;3.35;;;14.80;99.90;;;;;;5046555;28;20498;-76
2023/06/29 01:04:15;;;;;;;6.00;3.53;;;14.80;99.90;;;;;;5029455;28;20063;-76
2023/06/29 01:06:54;;;;;;;3.72;3.25;;;14.80;99.90;;;;;;5045605;28;20050;-77
2023/06/29 01:09:21;;;;;;;7.50;3.78;;;14.90;99.90;;;;;;5048509;28;20060;-77
2023/06/29 01:11:49;;;;;;;7.22;4.00;;;14.90;99.90;;;;;;5048024;28;20025;-77
2023/06/29 01:14:17;;;;;;;5.95;3.42;;;14.90;99.90;;;;;;5049289;28;20036;-78
2023/06/29 01:16:44;;;;;;;4.97;3.20;;;14.80;99.90;;;;;;5046076;28;20030;-77
2023/06/29 01:19:17;;;;;;;4.22;3.33;;;14.80;99.90;;;;;;5031726;28;20052;-78
2023/06/29 01:21:57;;;;;;;4.53;3.03;;;14.70;99.90;;;;;;5047254;28;20460;-76
2023/06/29 01:24:26;;;;;;;4.77;3.17;;;14.60;99.90;;;;;;5049903;28;20047;-78
2023/06/29 01:26:53;;;;;;;5.65;3.85;;;14.50;99.90;;;;;;5048099;28;20363;-77
2023/06/29 01:29:24;;;;;;;5.32;3.95;;;14.50;99.90;;;;;;5047301;28;20056;-76
2023/06/29 01:31:59;;;;;;;4.07;3.20;;;14.50;99.90;;;;;;5063767;28;20395;-76
2023/06/29 01:34:31;;;;;;;4.85;3.63;;;14.60;99.90;;;;;;5064060;28;20044;-76
2023/06/29 01:37:04;;;;;;;7.28;3.40;;;14.70;99.90;;;;;;5063160;28;20056;-78
2023/06/29 01:39:40;;;;;;;5.80;3.83;;;14.60;99.90;;;;;;5047439;28;20033;-75
2023/06/29 01:42:11;;;;;;;5.18;3.88;;;14.50;99.90;;;;;;5044150;28;20404;-76
2023/06/29 01:44:37;;;;;;;6.57;3.45;;;14.60;99.90;;;;;;5048453;28;20052;-81
2023/06/29 01:47:05;;;;;;;5.18;3.70;;;14.50;99.90;;;;;;5049921;28;20379;-77
2023/06/29 01:49:33;;;;;;;4.90;3.55;;;14.50;99.90;;;;;;5048249;28;20032;-78
2023/06/29 01:51:59;;;;;;;10.90;4.43;;;14.50;99.90;;;;;;5016824;28;20056;-78
2023/06/29 01:54:28;;;;;;;7.97;3.72;;;14.30;99.90;;;;;;5032367;28;20057;-77
2023/06/29 01:56:54;;;;;;;4.38;3.97;;;14.20;99.90;;;;;;5049211;28;20036;-77
2023/06/29 01:59:20;;;;;;;5.88;4.00;;;14.10;99.90;;;;;;5047592;28;20056;-76
2023/06/29 02:01:47;;;;;;;6.18;3.53;;;14.00;99.90;;;;;;5063921;28;20393;-77
2023/06/29 02:04:13;;;;;;;5.65;4.00;;;14.00;99.90;;;;;;5047265;28;20049;-76
2023/06/29 02:06:40;;;;;;;7.10;4.07;;;14.00;99.90;;;;;;5050207;28;20046;-77
2023/06/29 02:09:06;;;;;;;6.78;4.05;;;14.00;99.90;;;;;;5048829;28;20040;-78
2023/06/29 02:11:32;;;;;;;5.13;3.65;;;14.10;99.90;;;;;;5050036;28;20464;-75
2023/06/29 02:13:58;;;;;;;4.35;3.75;;;14.20;99.90;;;;;;5058806;28;20121;-76
2023/06/29 02:16:25;;;;;;;5.93;3.47;;;14.30;99.90;;;;;;5048027;28;20036;-76
2023/06/29 02:18:51;;;;;;;6.07;3.53;;;14.40;99.90;;;;;;5046143;28;20033;-76
2023/06/29 02:21:17;;;;;;;5.15;3.78;;;14.50;99.90;;;;;;5062867;28;20045;-76
2023/06/29 02:23:43;;;;;;;5.80;3.53;;;14.50;99.90;;;;;;5046516;28;20041;-77
2023/06/29 02:26:09;;;;;;;3.72;3.42;;;14.50;99.90;;;;;;5046051;28;20033;-76
2023/06/29 02:28:36;;;;;;;6.90;4.07;;;14.50;99.90;;;;;;5045428;28;20408;-82
2023/06/29 02:31:02;;;;;;;4.25;3.40;;;14.60;99.90;;;;;;5058344;28;20093;-76
2023/06/29 02:33:29;;;;;;;5.70;3.65;;;14.60;99.90;;;;;;5032771;28;20377;-75
2023/06/29 02:35:55;;;;;;;6.55;3.78;;;14.60;99.90;;;;;;5026297;28;20392;-76
2023/06/29 02:38:21;;;;;;;4.85;3.55;;;14.60;99.90;;;;;;5037180;28;20049;-79
2023/06/29 02:40:48;;;;;;;6.28;4.22;;;14.50;99.90;;;;;;5057529;28;20045;-76
2023/06/29 02:43:15;;;;;;;4.57;3.83;;;14.30;99.90;;;;;;5046313;28;20056;-76
2023/06/29 02:45:42;;;;;;;5.30;3.90;;;14.10;99.90;;;;;;5047741;28;20420;-76
2023/06/29 02:48:08;;;;;;;7.38;3.90;;;14.10;99.90;;;;;;5031797;28;20490;-76
2023/06/29 02:50:35;;;;;;;5.97;4.18;;;14.00;99.90;;;;;;5049008;28;20086;-77
2023/06/29 02:53:02;;;;;;;5.05;3.67;;;14.00;99.90;;;;;;5031942;28;20056;-77
2023/06/29 02:55:30;;;;;;;5.97;4.55;;;14.00;99.90;;;;;;5049249;28;20033;-76
2023/06/29 02:58:00;;;;;;;7.38;4.03;;;13.90;99.90;;;;;;5046135;28;20041;-76
2023/06/29 03:00:27;;;;;;;6.35;4.45;;;13.70;99.90;;;;;;5031806;28;20052;-76
2023/06/29 03:02:53;;;;;;;5.85;4.72;;;13.60;99.90;;;;;;5047179;28;20494;-76
2023/06/29 03:05:19;;;;;;;7.00;3.78;;;13.50;99.90;;;;;;5048094;28;20033;-76
2023/06/29 03:07:45;;;;;;;4.70;3.80;;;13.40;99.90;;;;;;5046985;28;20033;-76
2023/06/29 03:10:12;;;;;;;5.25;4.57;;;13.30;99.90;;;;;;5047779;28;20032;-75
2023/06/29 03:12:38;;;;;;;5.50;4.53;;;13.40;99.90;;;;;;5048332;28;20041;-81
2023/06/29 03:15:04;;;;;;;7.05;4.40;;;13.40;99.90;;;;;;5048309;28;20036;-75
2023/06/29 03:17:31;;;;;;;6.15;5.55;;;13.30;99.90;;;;;;5048218;28;20464;-76
2023/06/29 03:19:57;;;;;;;5.35;4.25;;;13.40;99.90;;;;;;5060857;28;20044;-76
2023/06/29 03:22:25;;;;;;;9.02;4.47;;;13.40;99.90;;;;;;5032860;28;20044;-77
2023/06/29 03:24:51;;;;;;;5.75;4.40;;;13.40;99.90;;;;;;5049007;28;20392;-75
2023/06/29 03:27:17;;;;;;;6.25;4.35;;;13.40;99.90;;;;;;5031111;28;20045;-78
2023/06/29 03:29:43;;;;;;;4.88;3.90;;;13.40;99.90;;;;;;5047146;28;20033;-75
2023/06/29 03:32:09;;;;;;;7.60;4.22;;;13.70;99.90;;;;;;5046561;28;20033;-75
2023/06/29 03:34:36;;;;;;;6.80;4.95;;;13.80;99.90;;;;;;5047557;28;20044;-77
2023/06/29 03:37:02;;;;;;;4.40;3.80;;;13.80;99.90;;;;;;5029261;28;20052;-76
2023/06/29 03:39:28;;;;;;;4.85;4.15;;;13.80;99.90;;;;;;5046174;28;20028;-76
2023/06/29 03:41:55;;;;;;;4.68;3.60;;;13.70;99.90;;;;;;5044067;28;20045;-76
2023/06/29 03:44:21;;;;;;;5.60;4.07;;;13.70;99.90;;;;;;5046003;28;20040;-77
2023/06/29 03:46:47;;;;;;;5.78;4.55;;;13.70;99.90;;;;;;5047495;28;20052;-79
2023/06/29 03:49:13;;;;;;;9.82;4.90;;;13.60;99.90;;;;;;5027243;28;20036;-76
2023/06/29 03:51:40;;;;;;;7.65;4.63;;;13.60;99.90;;;;;;5026141;28;20463;-82
2023/06/29 03:54:06;;;;;;;6.35;4.45;;;13.60;99.90;;;;;;5045576;28;20045;-76
2023/06/29 03:56:32;;;;;;;6.75;4.10;;;13.60;99.90;;;;;;5047354;28;20029;-74
2023/06/29 03:58:58;;;;;;;7.05;4.20;;;13.60;99.90;;;;;;5042694;28;20124;-75
2023/06/29 04:01:24;;;;;;;4.38;3.95;;;13.60;99.90;;;;;;5047620;28;20041;-76
2023/06/29 04:03:50;;;;;;;6.40;4.57;;;13.70;99.90;;;;;;5028788;28;20040;-76
2023/06/29 04:06:17;;;;;;;5.88;4.40;;;13.70;99.90;;;;;;5046834;28;20037;-76
2023/06/29 04:08:43;;;;;;;4.85;4.35;;;13.60;99.90;;;;;;5043864;28;20060;-82
2023/06/29 04:11:09;;;;;;;6.20;4.53;;;13.70;99.90;;;;;;5045766;28;20037;-76
2023/06/29 04:13:35;;;;;;;5.47;3.72;;;13.80;99.90;;;;;;5043242;28;20037;-74
2023/06/29 04:16:01;;;;;;;8.02;4.75;;;13.80;99.90;;;;;;5047790;28;20176;-75
2023/06/29 04:18:28;;;;;;;5.82;5.00;;;13.90;99.90;;;;;;5047546;28;20029;-78
2023/06/29 04:20:54;;;;;;;5.70;3.90;;;14.10;99.90;;;;;;5046981;28;20374;-74
2023/06/29 04:23:20;;;;;;;4.32;3.92;;;14.50;99.90;;;;;;5049649;28;20041;-76
2023/06/29 04:25:46;;;;;;;6.30;3.78;;;15.20;99.90;;;;;;5046189;28;20104;-78
2023/06/29 04:28:13;;;;;;;7.35;3.30;;;16.10;99.90;;;;;;5049616;28;20033;-81
2023/06/29 04:30:42;;;;;;;7.15;3.78;;;16.60;47.80;;;;;;5046617;28;20036;-79
2023/06/29 04:33:10;;;;;;;4.40;2.92;;;16.80;11.10;;;;;;5050806;28;20033;-76
2023/06/29 04:35:43;;;;;;;4.22;2.92;;;17.10;1.00;;;;;;5048783;28;20036;-76
2023/06/29 04:38:11;;;;;;;3.78;2.45;;;17.30;1.00;;;;;;5050723;28;20033;-82
2023/06/29 04:40:37;;;;;;;4.20;2.60;;;17.30;1.00;;;;;;5033222;28;20335;-76
2023/06/29 04:43:04;;;;;;;5.10;2.53;;;17.50;1.00;;;;;;5047744;28;20033;-75
2023/06/29 04:45:31;;;;;;;4.13;2.72;;;17.60;1.00;;;;;;5049547;28;20383;-77
2023/06/29 04:47:59;;;;;;;5.30;2.85;;;17.70;1.00;;;;;;5029453;28;20033;-76
2023/06/29 04:50:26;;;;;;;5.38;2.67;;;17.80;1.00;;;;;;5049166;28;20036;-76
2023/06/29 04:52:56;;;;;;;6.63;3.00;;;18.20;1.00;;;;;;5048133;28;20395;-77
2023/06/29 04:55:22;;;;;;;5.83;3.17;;;18.80;1.00;;;;;;5049489;28;20040;-76
2023/06/29 04:57:48;;;;;;;4.05;2.38;;;19.30;1.00;;;;;;5047855;28;20025;-77
2023/06/29 05:00:15;;;;;;;5.80;2.92;;;19.60;1.00;;;;;;5049160;28;20024;-79
2023/06/29 05:02:42;;;;;;;4.53;2.67;;;19.40;1.00;;;;;;5048047;28;20029;-77
2023/06/29 05:05:09;;;;;;;3.38;2.60;;;19.30;1.00;;;;;;5049777;28;20045;-77
2023/06/29 05:07:35;;;;;;;4.65;2.58;;;19.20;1.00;;;;;;5050405;28;20037;-79
2023/06/29 05:10:01;;;;;;;5.43;2.95;;;19.20;1.00;;;;;;5047308;28;20032;-77
2023/06/29 05:12:27;;;;;;;7.35;3.00;;;19.50;1.00;;;;;;5051192;28;20032;-76
2023/06/29 05:14:54;;;;;;;8.00;2.55;;;20.00;1.00;;;;;;5044805;28;20502;-77
2023/06/29 05:17:20;;;;;;;2.85;2.60;;;20.60;99.90;;;;;;5031972;28;20400;-77
2023/06/29 05:19:46;;;;;;;4.70;2.83;;;20.90;99.90;;;;;;5031113;28;20033;-77
2023/06/29 05:22:12;;;;;;;3.97;2.67;;;21.10;99.90;;;;;;5041120;28;20495;-76
2023/06/29 05:24:38;;;;;;;4.13;2.50;;;21.00;99.90;;;;;;5046164;28;20037;-77
2023/06/29 05:27:05;;;;;;;4.85;2.15;;;21.00;99.90;;;;;;5048158;28;20220;-74
2023/06/29 05:29:31;;;;;;;3.75;2.20;;;20.80;99.90;;;;;;5012548;28;20407;-75
2023/06/29 05:31:57;;;;;;;4.43;2.63;;;20.90;99.90;;;;;;5048256;28;20052;-78
2023/06/29 05:34:23;;;;;;;3.70;2.78;;;21.70;99.90;;;;;;5034311;28;20044;-76
2023/06/29 05:36:49;;;;;;;2.92;2.15;;;22.00;99.90;;;;;;5047852;28;20040;-76
2023/06/29 05:39:15;;;;;;;4.88;3.03;;;21.90;99.90;;;;;;5049031;28;20029;-75
2023/06/29 05:41:42;;;;;;;4.30;2.85;;;21.50;99.90;;;;;;5039781;28;20048;-75
2023/06/29 05:44:08;;;;;;;6.88;3.05;;;21.00;99.90;;;;;;5048798;28;20044;-75
2023/06/29 05:46:34;;;;;;;3.50;2.50;;;20.60;99.90;;;;;;5049386;28;20033;-77
2023/06/29 05:49:01;;;;;;;11.15;3.08;;;21.00;99.90;;;;;;5051648;28;20044;-74
2023/06/29 05:51:27;;;;;;;5.80;3.22;;;20.90;99.90;;;;;;5049889;28;20041;-80
2023/06/29 05:53:54;;;;;;;7.18;2.83;;;20.90;99.90;;;;;;5049186;28;20044;-80
2023/06/29 05:56:21;;;;;;;4.22;3.10;;;21.40;99.90;;;;;;5046283;28;20021;-77
2023/06/29 05:58:48;;;;;;;4.05;3.10;;;21.50;99.90;;;;;;5049018;28;20041;-82
2023/06/29 06:01:14;;;;;;;6.90;3.15;;;21.80;99.90;;;;;;5049527;28;20039;-78
2023/06/29 06:03:40;;;;;;;13.30;3.80;;;22.20;99.90;;;;;;5049525;28;20045;-78
2023/06/29 06:06:06;;;;;;;6.45;3.67;;;21.90;99.90;;;;;;5064929;28;20276;-77
2023/06/29 06:08:33;;;;;;;8.43;3.10;;;21.40;99.90;;;;;;5048076;28;20040;-77
2023/06/29 06:10:59;;;;;;;6.20;3.78;;;21.90;99.90;;;;;;5040377;28;20039;-82
2023/06/29 06:13:25;;;;;;;7.18;3.45;;;22.30;99.90;;;;;;5045680;28;20360;-78
2023/06/29 06:15:51;;;;;;;6.60;3.10;;;22.00;99.90;;;;;;5049139;28;20034;-78
2023/06/29 06:18:18;;;;;;;8.40;3.85;;;22.00;99.90;;;;;;5045424;28;20827;-78
2023/06/29 06:20:44;;;;;;;8.63;3.55;;;22.30;99.90;;;;;;5047895;28;20044;-78
2023/06/29 06:23:10;;;;;;;7.95;3.53;;;22.30;99.90;;;;;;5045422;28;20034;-77
2023/06/29 06:25:36;;;;;;;7.57;3.78;;;22.80;99.90;;;;;;5065491;28;20052;-77
2023/06/29 06:28:03;;;;;;;5.88;3.65;;;23.50;99.90;;;;;;5051284;28;20040;-76
2023/06/29 06:30:29;;;;;;;6.75;3.58;;;23.90;99.90;;;;;;5047011;28;20472;-81
2023/06/29 06:32:55;;;;;;;5.63;3.17;;;24.20;99.90;;;;;;5044341;28;20056;-80
2023/06/29 06:35:21;;;;;;;6.00;3.00;;;23.70;99.90;;;;;;5044660;28;20040;-78
2023/06/29 06:37:50;;;;;;;7.90;3.42;;;23.60;99.90;;;;;;5049920;28;20040;-86
2023/06/29 06:40:16;;;;;;;10.57;3.90;;;23.70;99.90;;;;;;5048380;28;20040;-78
2023/06/29 06:42:43;;;;;;;4.90;3.13;;;23.80;99.90;;;;;;5047062;28;20032;-79
2023/06/29 06:45:09;;;;;;;5.30;2.33;;;24.60;99.90;;;;;;5041174;28;20483;-78
2023/06/29 06:47:36;;;;;;;5.78;2.50;;;25.40;99.90;;;;;;5049957;28;20033;-79
2023/06/29 06:50:03;;;;;;;5.85;2.70;;;25.40;99.90;;;;;;5043659;28;20081;-80
2023/06/29 06:52:29;;;;;;;6.10;3.00;;;25.30;99.90;;;;;;5048899;28;20049;-78
2023/06/29 06:54:59;;;;;;;7.63;2.80;;;25.70;99.90;;;;;;5058326;28;20085;-78
2023/06/29 06:57:25;;;;;;;5.63;2.65;;;26.10;99.90;;;;;;5048755;28;20056;-79
2023/06/29 06:59:51;;;;;;;6.38;2.40;;;26.30;99.90;;;;;;5029056;28;20404;-80
2023/06/29 07:02:17;;;;;;;4.82;2.40;;;25.40;99.90;;;;;;5044485;28;20048;-78
2023/06/29 07:04:43;;;;;;;3.55;2.15;;;25.00;99.90;;;;;;5048003;28;20047;-80
2023/06/29 07:07:10;;;;;;;6.82;2.65;;;24.30;99.90;;;;;;5027818;28;20041;-78
2023/06/29 07:09:38;;;;;;;9.40;2.50;;;23.70;99.90;;;;;;5044908;28;20036;-81
2023/06/29 07:12:05;;;;;;;4.70;2.13;;;23.80;99.90;;;;;;5024955;28;20116;-79
2023/06/29 07:14:31;;;;;;;3.92;1.75;;;24.10;99.90;;;;;;5046020;28;20459;-78
2023/06/29 07:16:58;;;;;;;7.35;1.90;;;24.80;99.90;;;;;;5061545;28;20044;-81
2023/06/29 07:19:24;;;;;;;5.88;2.05;;;25.50;99.90;;;;;;5046836;28;20100;-79
2023/06/29 07:21:50;;;;;;;7.20;2.75;;;26.30;99.90;;;;;;5046197;28;20036;-85
2023/06/29 07:24:16;;;;;;;7.60;2.25;;;26.10;99.90;;;;;;5046744;28;20044;-78
2023/06/29 07:26:43;;;;;;;6.82;2.22;;;25.20;99.90;;;;;;5042292;28;20033;-79
2023/06/29 07:29:09;;;;;;;6.68;2.65;;;25.00;99.90;;;;;;5042209;28;20024;-78
2023/06/29 07:31:35;;;;;;;6.63;2.30;;;25.60;99.90;;;;;;5058913;28;20173;-80
2023/06/29 07:34:01;;;;;;;4.05;2.78;;;25.30;99.90;;;;;;5046244;28;20037;-79
2023/06/29 07:36:29;;;;;;;10.40;2.58;;;25.90;99.90;;;;;;5045929;28;20029;-78
2023/06/29 07:38:55;;;;;;;6.25;1.90;;;26.50;99.90;;;;;;5047842;28;20033;-79
2023/06/29 07:41:22;;;;;;;5.32;1.90;;;27.20;99.90;;;;;;5030427;28;20472;-83
2023/06/29 07:43:54;;;;;;;6.22;2.33;;;27.60;94.80;;;;;;5047170;28;20037;-87
2023/06/29 07:46:20;;;;;;;4.47;1.95;;;26.90;98.80;;;;;;5042715;28;20048;-80
2023/06/29 07:48:47;;;;;;;4.03;2.08;;;26.40;99.90;;;;;;5046652;28;20029;-82
2023/06/29 07:51:14;;;;;;;5.32;1.92;;;25.80;99.90;;;;;;5030745;28;20045;-81
2023/06/29 07:53:41;;;;;;;3.83;2.25;;;25.60;99.90;;;;;;5064752;28;20028;-82
2023/06/29 07:56:08;;;;;;;7.70;2.25;;;25.30;99.90;;;;;;5033066;28;20063;-81
2023/06/29 07:58:34;;;;;;;4.40;2.30;;;24.80;99.90;;;;;;5051047;28;20052;-81
2023/06/29 08:01:01;;;;;;;4.95;1.40;;;24.70;99.90;;;;;;5047991;28;20051;-82
2023/06/29 08:03:28;;;;;;;5.38;2.00;;;25.20;99.90;;;;;;5046769;28;20036;-81
2023/06/29 08:05:54;;;;;;;2.65;1.77;;;25.30;99.90;;;;;;5049348;28;20048;-80
2023/06/29 08:08:21;;;;;;;4.97;1.60;;;26.50;97.90;;;;;;5037021;28;20475;-80
2023/06/29 08:10:48;;;;;;;3.47;1.73;;;27.00;87.60;;;;;;5048026;28;20032;-86
2023/06/29 08:13:15;;;;;;;5.35;1.98;;;26.80;61.70;;;;;;5049188;28;20080;-84
2023/06/29 08:15:42;;;;;;;5.38;1.80;;;26.70;78.20;;;;;;5052283;28;20040;-83
2023/06/29 08:18:08;;;;;;;3.72;1.33;;;26.70;75.50;;;;;;5033390;28;20034;-83
2023/06/29 08:20:34;;;;;;;3.55;1.50;;;27.30;81.50;;;;;;5051027;28;20411;-85
2023/06/29 08:23:00;;;;;;;4.43;1.25;;;27.50;52.70;;;;;;5045408;28;20493;-82
2023/06/29 08:25:27;;;;;;;3.38;0.85;;;27.80;76.20;;;;;;5046507;28;20033;-78
2023/06/29 08:27:53;;;;;;;4.18;1.00;;;28.60;55.90;;;;;;5043080;28;20048;-83
2023/06/29 08:30:20;;;;;;;2.22;0.98;;;28.50;31.00;;;;;;5049587;28;20384;-81
2023/06/29 08:32:48;;;;;;;3.88;1.60;;;27.90;68.10;;;;;;5032991;28;20045;-82
2023/06/29 08:35:15;;;;;;;3.20;1.25;;;27.20;78.50;;;;;;5064468;28;20040;-82
2023/06/29 08:37:41;;;;;;;3.30;1.67;;;26.40;80.20;;;;;;5049539;28;20029;-82
2023/06/29 08:40:09;;;;;;;3.60;1.70;;;26.00;95.90;;;;;;5050036;28;20379;-81
2023/06/29 08:42:37;;;;;;;4.28;1.50;;;26.70;98.60;;;;;;5047521;28;20483;-81
2023/06/29 08:45:05;;;;;;;5.75;1.40;;;27.20;93.70;;;;;;5048714;28;20044;-82
2023/06/29 08:47:33;;;;;;;4.82;1.48;;;27.60;66.40;;;;;;5033324;28;20029;-82
2023/06/29 08:50:03;;;;;;;4.28;1.02;;;27.40;65.90;;;;;;5048063;28;20037;-82
2023/06/29 08:52:31;;;;;;;;;;;27.30;68.30;;;;;;5061733;28;20041;-81
2023/06/29 08:54:58;;;;;;;3.38;1.02;;;27.50;63.60;;;;;;5026461;28;20266;-82
2023/06/29 08:57:24;;;;;;;7.15;1.52;;;28.20;73.10;;;;;;5048797;28;20037;-82
2023/06/29 08:59:51;;;;;;;2.63;1.25;;;29.10;60.90;;;;;;5052383;28;20072;-86
2023/06/29 09:02:18;;;;;;;6.35;1.83;;;29.30;42.10;;;;;;5063344;28;20037;-83
2023/06/29 09:04:44;;;;;;;4.00;1.30;;;29.70;34.10;;;;;;5048668;28;20387;-81
2023/06/29 09:07:12;;;;;;;4.40;1.45;;;29.50;34.40;;;;;;5049876;28;20041;-84
2023/06/29 09:09:38;;;;;;;4.00;1.42;;;29.90;23.70;;;;;;5032457;28;20368;-84
2023/06/29 09:12:04;;;;;;;3.45;1.55;;;29.50;22.20;;;;;;5019060;28;20396;-85
2023/06/29 09:14:35;;;;;;;7.28;1.30;;;29.40;17.80;;;;;;5033504;28;20068;-89
2023/06/29 09:17:01;;;;;;;4.65;1.50;;;28.90;25.20;;;;;;5040980;28;20048;-86
2023/06/29 09:19:29;;;;;;;6.47;1.35;;;29.00;30.70;;;;;;5034486;28;20131;-85
2023/06/29 09:21:57;;;;;;;2.92;1.38;;;28.60;50.10;;;;;;5065033;28;20048;-86
2023/06/29 09:24:28;;;;;;;3.28;1.50;;;29.60;27.80;;;;;;5051194;28;20041;-87
2023/06/29 09:26:55;;;;;;;3.47;1.48;;;30.00;26.50;;;;;;5047150;28;20490;-88
2023/06/29 09:29:22;;;;;;;2.92;1.10;;;29.70;10.00;;;;;;5066979;28;20040;-87
2023/06/29 09:31:58;;;;;;;7.22;1.90;;;29.00;22.70;;;;;;5051315;28;20037;-86
2023/06/29 09:34:26;;;;;;;6.97;1.70;;;28.40;40.90;;;;;;5051677;28;20040;-87
2023/06/29 09:36:53;;;;;;;5.68;2.30;;;28.20;45.50;;;;;;5035611;28;20042;-87
2023/06/29 09:39:20;;;;;;;2.85;1.98;;;27.80;47.60;;;;;;5049571;28;20041;-87
2023/06/29 09:41:50;;;;;;;3.28;1.73;;;27.60;47.30;;;;;;5047043;28;20034;-86
2023/06/29 09:44:19;;;;;;;7.22;2.10;;;27.30;57.00;;;;;;5033537;28;20040;-85
2023/06/29 09:46:49;;;;;;;7.53;2.13;;;27.10;71.30;;;;;;5062636;28;20049;-86
2023/06/29 09:49:17;;;;;;;7.50;2.08;;;26.80;68.70;;;;;;5021893;28;20037;-87
2023/06/29 09:51:44;;;;;;;3.80;1.90;;;26.80;69.20;;;;;;5047370;28;20045;-86
2023/06/29 09:54:14;;;;;;;4.88;1.45;;;26.70;73.80;;;;;;5027745;28;20472;-87
2023/06/29 09:56:40;;;;;;;;;;;26.90;81.10;;;;;;5049187;28;20439;-88
2023/06/29 09:59:11;;;;;;;5.72;2.17;;;27.20;90.70;;;;;;5046033;28;19920;-88
2023/06/29 10:01:40;;;;;;;8.93;2.55;;;26.90;75.20;;;;;;5065404;28;20044;-86
2023/06/29 10:04:07;;;;;;;8.10;2.33;;;26.60;90.90;;;;;;5050020;28;20032;-85
2023/06/29 10:06:54;;;;;;;6.35;2.20;;;26.40;92.90;;;;;;5049978;28;20048;-86
2023/06/29 10:09:21;;;;;;;7.60;2.92;;;26.20;97.50;;;;;;5043964;28;20040;-86
2023/06/29 10:11:53;;;;;;;13.68;2.63;;;26.60;93.80;;;;;;5032948;28;20039;-85
2023/06/29 10:14:21;;;;;;;7.03;3.08;;;26.90;96.40;;;;;;5046617;28;20036;-83
2023/06/29 10:16:52;;;;;;;7.72;2.67;;;26.50;92.00;;;;;;5049720;28;20033;-84
2023/06/29 10:19:22;;;;;;;7.20;2.65;;;26.50;96.00;;;;;;5029419;28;20458;-83
2023/06/29 10:21:56;;;;;;;6.82;3.17;;;26.30;95.20;;;;;;5062838;28;20069;-84
2023/06/29 10:24:29;;;;;;;6.20;2.67;;;26.40;93.60;;;;;;5048018;28;20037;-83
2023/06/29 10:26:57;;;;;;;5.43;2.85;;;26.40;93.90;;;;;;5046148;28;20037;-85
2023/06/29 10:29:23;;;;;;;8.15;3.05;;;26.50;98.60;;;;;;5043086;28;20032;-83
2023/06/29 10:31:54;;;;;;;6.25;3.42;;;26.30;93.30;;;;;;5047394;28;20040;-83
2023/06/29 10:34:21;;;;;;;8.65;3.28;;;26.10;99.90;;;;;;5034121;28;20531;-86
2023/06/29 10:36:49;;;;;;;5.85;3.08;;;25.90;99.90;;;;;;5034507;28;20041;-83
2023/06/29 10:39:38;;;;;;;9.30;3.55;;;26.00;99.90;;;;;;5048245;28;20033;-87
2023/06/29 10:42:12;;;;;;;12.32;4.43;;;26.10;99.90;;;;;;5033010;28;20044;-87
2023/06/29 10:44:39;;;;;;;4.63;2.67;;;26.10;99.90;;;;;;5045832;28;20037;-87
2023/06/29 10:47:05;;;;;;;11.55;2.95;;;26.30;99.90;;;;;;5033345;28;20048;-85
2023/06/29 10:49:32;;;;;;;10.45;2.88;;;26.50;99.90;;;;;;5031724;28;20455;-85
2023/06/29 10:52:03;;;;;;;5.82;2.75;;;26.80;96.40;;;;;;5029620;28;20052;-87
2023/06/29 10:54:30;;;;;;;7.70;2.42;;;26.80;99.90;;;;;;5048588;28;20041;-86
2023/06/29 10:57:01;;;;;;;7.03;2.90;;;26.40;95.60;;;;;;5049439;28;20033;-85
2023/06/29 10:59:28;;;;;;;6.60;2.30;;;26.00;99.90;;;;;;5045174;28;20056;-86
2023/06/29 11:01:54;;;;;;;5.43;2.20;;;26.10;99.90;;;;;;5050134;28;20484;-84
2023/06/29 11:04:22;;;;;;;5.65;2.03;;;26.40;98.00;;;;;;5046110;28;20037;-79
2023/06/29 11:06:49;;;;;;;6.30;1.90;;;26.20;95.60;;;;;;5027241;28;20041;-80
2023/06/29 11:09:16;;;;;;;3.92;1.77;;;26.50;91.80;;;;;;5044173;28;20025;-80
2023/06/29 11:11:45;;;;;;;3.97;1.67;;;26.00;96.20;;;;;;5047610;28;20044;-80
2023/06/29 11:14:14;;;;;;;3.33;1.40;;;25.90;95.50;;;;;;5045651;28;20028;-80
2023/06/29 11:16:41;;;;;;;4.43;1.83;;;26.10;99.30;;;;;;5046769;28;20028;-79
2023/06/29 11:19:07;;;;;;;5.43;2.13;;;26.00;92.50;;;;;;5047910;28;20029;-80
2023/06/29 11:21:33;;;;;;;3.85;1.83;;;25.80;91.40;;;;;;5031138;28;20040;-80
2023/06/29 11:24:00;;;;;;;6.20;1.70;;;25.80;99.70;;;;;;5045666;28;20044;-80
2023/06/29 11:26:26;;;;;;;8.38;1.95;;;26.00;95.40;;;;;;5043124;28;20036;-81
2023/06/29 11:28:54;;;;;;;5.45;1.60;;;25.90;95.10;;;;;;5047053;28;20037;-80
2023/06/29 11:31:20;;;;;;;2.92;1.70;;;25.80;99.90;;;;;;5041281;28;20033;-81
2023/06/29 11:33:51;;;;;;;3.45;1.80;;;25.70;99.90;;;;;;5047120;28;20041;-81
2023/06/29 11:36:28;;;;;;;4.15;1.67;;;25.80;99.90;;;;;;5043543;28;20028;-79
2023/06/29 11:39:24;;;;;;;5.30;1.75;;;26.00;99.90;;;;;;5046475;28;20060;-80
2023/06/29 11:41:50;;;;;;;4.40;1.63;;;26.00;99.90;;;;;;5018882;28;20037;-78
2023/06/29 11:44:21;;;;;;;5.32;3.03;;;26.20;99.70;;;;;;5042617;28;20049;-79
2023/06/29 11:46:48;;;;;;;7.25;2.30;;;26.30;97.00;;;;;;5032385;28;20492;-81
2023/06/29 11:49:16;;;;;;;4.25;1.80;;;26.10;94.30;;;;;;5046553;28;20028;-80
2023/06/29 11:51:42;;;;;;;4.72;1.80;;;25.80;97.50;;;;;;5047788;28;20041;-80
2023/06/29 11:54:09;;;;;;;5.28;1.70;;;25.70;99.90;;;;;;5045869;28;20041;-80
2023/06/29 11:56:37;;;;;;;4.03;1.95;;;25.70;96.00;;;;;;5047133;28;20036;-80
2023/06/29 11:59:08;;;;;;;6.40;2.35;;;25.50;99.90;;;;;;5048270;28;20052;-79
2023/06/29 12:01:36;;;;;;;5.68;1.90;;;25.50;99.90;;;;;;5028578;28;20040;-81
2023/06/29 12:04:06;;;;;;;8.45;2.70;;;25.40;99.90;;;;;;5048553;28;20471;-81
2023/06/29 12:06:35;;;;;;;6.03;1.50;;;25.30;99.90;;;;;;5049545;28;20056;-82
2023/06/29 12:09:11;;;;;;;6.55;3.15;;;25.20;99.90;;;;;;5048419;28;20041;-84
2023/06/29 12:11:41;;;;;;;16.33;4.63;;;25.10;99.90;;;;;;5048523;28;20048;-81
2023/06/29 12:14:08;;;;;;;;;;;24.90;99.90;;;;;;5048789;28;20373;-81
2023/06/29 12:16:41;;;;;;;8.52;3.42;;;24.90;99.90;;;;;;5051443;28;20339;-82
2023/06/29 12:19:11;;;;;;;7.63;2.30;;;24.90;99.90;;;;;;5047728;28;20025;-83
2023/06/29 12:21:37;;;;;;;5.00;2.15;;;24.80;99.90;;;;;;5045432;28;20048;-82
2023/06/29 12:24:05;;;;;;;8.05;2.40;;;24.70;99.90;;;;;;5045784;28;20033;-82
2023/06/29 12:26:32;;;;;;;6.55;2.20;;;24.80;99.90;;;;;;5046067;28;20391;-82
2023/06/29 12:28:58;;;;;;;6.43;2.25;;;24.80;99.90;;;;;;5046349;28;20056;-81
2023/06/29 12:31:28;;;;;;;5.95;2.42;;;24.70;99.90;;;;;;5046416;28;20036;-82
2023/06/29 12:33:54;;;;;;;3.85;1.92;;;24.50;99.90;;;;;;5046491;28;20049;-82
2023/06/29 12:36:21;;;;;;;5.43;2.50;;;24.40;99.90;;;;;;5044131;28;20041;-81
2023/06/29 12:38:48;;;;;;;6.68;1.98;;;24.30;99.90;;;;;;5049701;28;20048;-82
2023/06/29 12:41:14;;;;;;;4.53;1.88;;;24.40;99.90;;;;;;5047675;28;20033;-81
2023/06/29 12:43:40;;;;;;;4.40;1.90;;;24.40;99.90;;;;;;5050364;28;20498;-85
2023/06/29 12:46:11;;;;;;;4.32;2.17;;;24.50;99.90;;;;;;5048199;28;20037;-84
2023/06/29 12:48:37;;;;;;;4.53;2.33;;;24.50;99.90;;;;;;5050696;28;20029;-83